sensor_id;sensor_type;location;lat;lon;timestamp;P1;durP1;ratioP1;P2;durP2;ratioP2
28009;SDS011;15334;49.494;8.410;2023-08-31T14:28:22;5.90;;;1.45;;
28009;SDS011;15334;49.494;8.410;2023-08-31T14:30:50;4.70;;;1.80;;
28009;SDS011;15334;49.494;8.410;2023-08-31T14:33:18;4.10;;;1.50;;
28009;SDS011;15334;49.494;8.410;2023-08-31T14:35:49;4.38;;;1.70;;
28009;SDS011;15334;49.494;8.410;2023-08-31T14:38:20;6.78;;;1.63;;
28009;SDS011;15334;49.494;8.410;2023-08-31T14:40:49;2.65;;;1.45;;
28009;SDS011;15334;49.494;8.410;2023-08-31T14:43:18;3.92;;;1.77;;
28009;SDS011;15334;49.494;8.410;2023-08-31T14:45:48;7.32;;;1.60;;
28009;SDS011;15334;49.494;8.410;2023-08-31T14:48:16;4.93;;;1.60;;
28009;SDS011;15334;49.494;8.410;2023-08-31T14:50:44;4.88;;;1.40;;
28009;SDS011;15334;49.494;8.410;2023-08-31T14:53:12;4.82;;;1.48;;
28009;SDS011;15334;49.494;8.410;2023-08-31T14:55:40;6.00;;;1.48;;
28009;SDS011;15334;49.494;8.410;2023-08-31T14:58:15;5.07;;;1.77;;
28009;SDS011;15334;49.494;8.410;2023-08-31T15:00:43;6.10;;;1.60;;
28009;SDS011;15334;49.494;8.410;2023-08-31T15:03:12;5.50;;;1.60;;
28009;SDS011;15334;49.494;8.410;2023-08-31T15:05:40;6.38;;;1.83;;
28009;SDS011;15334;49.494;8.410;2023-08-31T15:08:08;3.65;;;1.20;;
28009;SDS011;15334;49.494;8.410;2023-08-31T15:10:38;9.10;;;1.70;;
28009;SDS011;15334;49.494;8.410;2023-08-31T15:13:07;5.78;;;1.83;;
28009;SDS011;15334;49.494;8.410;2023-08-31T15:15:35;4.90;;;1.73;;
28009;SDS011;15334;49.494;8.410;2023-08-31T15:18:04;3.85;;;1.60;;
28009;SDS011;15334;49.494;8.410;2023-08-31T15:20:33;5.60;;;1.70;;
28009;SDS011;15334;49.494;8.410;2023-08-31T15:23:04;8.88;;;1.98;;
28009;SDS011;15334;49.494;8.410;2023-08-31T15:25:34;3.13;;;1.50;;
28009;SDS011;15334;49.494;8.410;2023-08-31T15:28:02;3.95;;;1.58;;
28009;SDS011;15334;49.494;8.410;2023-08-31T15:30:33;5.28;;;1.55;;
28009;SDS011;15334;49.494;8.410;2023-08-31T15:33:01;7.28;;;1.83;;
28009;SDS011;15334;49.494;8.410;2023-08-31T15:35:30;8.80;;;3.17;;
28009;SDS011;15334;49.494;8.410;2023-08-31T15:37:59;8.77;;;1.77;;
28009;SDS011;15334;49.494;8.410;2023-08-31T15:40:28;4.22;;;1.90;;
28009;SDS011;15334;49.494;8.410;2023-08-31T15:43:14;3.42;;;1.42;;
28009;SDS011;15334;49.494;8.410;2023-08-31T15:46:00;3.05;;;1.48;;
28009;SDS011;15334;49.494;8.410;2023-08-31T15:48:48;4.35;;;1.73;;
28009;SDS011;15334;49.494;8.410;2023-08-31T15:51:33;7.93;;;2.08;;
28009;SDS011;15334;49.494;8.410;2023-08-31T15:54:03;5.22;;;1.85;;
28009;SDS011;15334;49.494;8.410;2023-08-31T15:56:31;6.57;;;1.60;;
28009;SDS011;15334;49.494;8.410;2023-08-31T15:59:02;10.38;;;2.00;;
28009;SDS011;15334;49.494;8.410;2023-08-31T16:01:30;5.35;;;1.90;;
28009;SDS011;15334;49.494;8.410;2023-08-31T16:03:58;3.90;;;1.38;;
28009;SDS011;15334;49.494;8.410;2023-08-31T16:06:26;10.65;;;2.28;;
28009;SDS011;15334;49.494;8.410;2023-08-31T16:08:55;6.30;;;1.88;;
28009;SDS011;15334;49.494;8.410;2023-08-31T16:11:26;9.20;;;1.98;;
28009;SDS011;15334;49.494;8.410;2023-08-31T16:13:54;5.43;;;2.08;;
28009;SDS011;15334;49.494;8.410;2023-08-31T16:16:22;8.45;;;1.88;;
28009;SDS011;15334;49.494;8.410;2023-08-31T16:18:50;6.55;;;1.85;;
28009;SDS011;15334;49.494;8.410;2023-08-31T16:21:18;9.15;;;2.80;;
28009;SDS011;15334;49.494;8.410;2023-08-31T16:23:46;5.07;;;1.60;;
28009;SDS011;15334;49.494;8.410;2023-08-31T16:26:16;7.85;;;2.45;;
28009;SDS011;15334;49.494;8.410;2023-08-31T16:28:46;6.47;;;1.95;;
28009;SDS011;15334;49.494;8.410;2023-08-31T16:31:14;4.03;;;1.67;;
28009;SDS011;15334;49.494;8.410;2023-08-31T16:33:42;8.50;;;1.60;;
28009;SDS011;15334;49.494;8.410;2023-08-31T16:36:10;7.47;;;2.25;;
28009;SDS011;15334;49.494;8.410;2023-08-31T16:38:38;5.38;;;1.98;;
28009;SDS011;15334;49.494;8.410;2023-08-31T16:41:24;6.93;;;2.28;;
28009;SDS011;15334;49.494;8.410;2023-08-31T16:44:11;3.88;;;1.55;;
28009;SDS011;15334;49.494;8.410;2023-08-31T16:46:56;9.43;;;2.00;;
28009;SDS011;15334;49.494;8.410;2023-08-31T16:49:43;8.43;;;2.42;;
28009;SDS011;15334;49.494;8.410;2023-08-31T16:52:11;8.32;;;2.75;;
28009;SDS011;15334;49.494;8.410;2023-08-31T16:54:39;6.10;;;1.98;;
28009;SDS011;15334;49.494;8.410;2023-08-31T16:57:07;6.05;;;3.00;;
28009;SDS011;15334;49.494;8.410;2023-08-31T16:59:37;8.43;;;2.17;;
28009;SDS011;15334;49.494;8.410;2023-08-31T17:02:07;6.03;;;1.58;;
28009;SDS011;15334;49.494;8.410;2023-08-31T17:04:35;7.90;;;2.35;;
28009;SDS011;15334;49.494;8.410;2023-08-31T17:07:05;4.72;;;1.65;;
28009;SDS011;15334;49.494;8.410;2023-08-31T17:09:33;6.38;;;2.58;;
28009;SDS011;15334;49.494;8.410;2023-08-31T17:12:01;3.95;;;1.48;;
28009;SDS011;15334;49.494;8.410;2023-08-31T17:14:29;3.60;;;1.48;;
28009;SDS011;15334;49.494;8.410;2023-08-31T17:17:00;4.10;;;1.88;;
28009;SDS011;15334;49.494;8.410;2023-08-31T17:19:29;4.63;;;2.10;;
28009;SDS011;15334;49.494;8.410;2023-08-31T17:21:58;3.72;;;1.83;;
28009;SDS011;15334;49.494;8.410;2023-08-31T17:24:26;5.03;;;2.30;;
28009;SDS011;15334;49.494;8.410;2023-08-31T17:26:54;4.90;;;1.70;;
28009;SDS011;15334;49.494;8.410;2023-08-31T17:29:22;5.57;;;2.00;;
28009;SDS011;15334;49.494;8.410;2023-08-31T17:31:50;7.75;;;1.58;;
28009;SDS011;15334;49.494;8.410;2023-08-31T17:34:19;5.68;;;1.92;;
28009;SDS011;15334;49.494;8.410;2023-08-31T17:36:48;5.55;;;2.00;;
28009;SDS011;15334;49.494;8.410;2023-08-31T17:39:16;6.30;;;2.42;;
28009;SDS011;15334;49.494;8.410;2023-08-31T17:41:44;6.63;;;2.20;;
28009;SDS011;15334;49.494;8.410;2023-08-31T17:44:12;6.40;;;2.03;;
28009;SDS011;15334;49.494;8.410;2023-08-31T17:46:43;8.80;;;2.40;;
28009;SDS011;15334;49.494;8.410;2023-08-31T17:49:20;10.13;;;3.35;;
28009;SDS011;15334;49.494;8.410;2023-08-31T17:51:48;8.10;;;2.35;;
28009;SDS011;15334;49.494;8.410;2023-08-31T17:54:38;4.65;;;2.28;;
28009;SDS011;15334;49.494;8.410;2023-08-31T17:57:07;5.47;;;2.38;;
28009;SDS011;15334;49.494;8.410;2023-08-31T17:59:37;7.53;;;2.45;;
28009;SDS011;15334;49.494;8.410;2023-08-31T18:02:09;6.97;;;2.33;;
28009;SDS011;15334;49.494;8.410;2023-08-31T18:04:51;10.02;;;2.35;;
28009;SDS011;15334;49.494;8.410;2023-08-31T18:07:26;9.48;;;2.88;;
28009;SDS011;15334;49.494;8.410;2023-08-31T18:10:09;8.02;;;2.92;;
28009;SDS011;15334;49.494;8.410;2023-08-31T18:13:00;11.55;;;2.63;;
28009;SDS011;15334;49.494;8.410;2023-08-31T18:15:47;4.85;;;2.53;;
28009;SDS011;15334;49.494;8.410;2023-08-31T18:18:57;10.80;;;2.85;;
28009;SDS011;15334;49.494;8.410;2023-08-31T18:22:07;14.60;;;5.32;;
28009;SDS011;15334;49.494;8.410;2023-08-31T18:24:56;7.72;;;3.38;;
28009;SDS011;15334;49.494;8.410;2023-08-31T18:28:19;8.57;;;3.47;;
28009;SDS011;15334;49.494;8.410;2023-08-31T18:31:16;8.07;;;2.92;;
28009;SDS011;15334;49.494;8.410;2023-08-31T18:34:27;9.95;;;3.80;;
28009;SDS011;15334;49.494;8.410;2023-08-31T18:37:21;10.63;;;3.67;;
28009;SDS011;15334;49.494;8.410;2023-08-31T18:40:13;11.80;;;4.35;;
28009;SDS011;15334;49.494;8.410;2023-08-31T18:42:51;11.02;;;3.65;;
28009;SDS011;15334;49.494;8.410;2023-08-31T18:46:03;10.88;;;3.50;;
28009;SDS011;15334;49.494;8.410;2023-08-31T18:48:58;13.77;;;3.80;;
28009;SDS011;15334;49.494;8.410;2023-08-31T18:55:58;11.80;;;3.95;;
28009;SDS011;15334;49.494;8.410;2023-08-31T18:58:51;8.63;;;3.90;;
28009;SDS011;15334;49.494;8.410;2023-08-31T19:01:28;9.95;;;3.97;;
28009;SDS011;15334;49.494;8.410;2023-08-31T19:04:08;7.45;;;4.18;;
28009;SDS011;15334;49.494;8.410;2023-08-31T19:09:50;9.55;;;3.63;;
28009;SDS011;15334;49.494;8.410;2023-08-31T19:12:37;9.05;;;3.85;;
28009;SDS011;15334;49.494;8.410;2023-08-31T19:15:27;6.53;;;3.20;;
28009;SDS011;15334;49.494;8.410;2023-08-31T19:18:13;6.75;;;3.63;;
28009;SDS011;15334;49.494;8.410;2023-08-31T19:21:11;9.52;;;3.10;;
28009;SDS011;15334;49.494;8.410;2023-08-31T19:24:03;11.57;;;3.65;;
28009;SDS011;15334;49.494;8.410;2023-08-31T19:27:00;8.02;;;3.40;;
28009;SDS011;15334;49.494;8.410;2023-08-31T19:30:16;10.10;;;3.53;;
28009;SDS011;15334;49.494;8.410;2023-08-31T19:33:00;7.93;;;3.53;;
28009;SDS011;15334;49.494;8.410;2023-08-31T19:36:04;8.55;;;4.05;;
28009;SDS011;15334;49.494;8.410;2023-08-31T19:38:51;9.85;;;4.78;;
28009;SDS011;15334;49.494;8.410;2023-08-31T19:41:33;10.73;;;4.10;;
28009;SDS011;15334;49.494;8.410;2023-08-31T19:48:39;9.82;;;3.38;;
28009;SDS011;15334;49.494;8.410;2023-08-31T19:55:16;12.80;;;4.35;;
28009;SDS011;15334;49.494;8.410;2023-08-31T19:58:05;9.27;;;4.28;;
28009;SDS011;15334;49.494;8.410;2023-08-31T20:01:20;13.45;;;4.07;;
28009;SDS011;15334;49.494;8.410;2023-08-31T20:04:39;10.95;;;4.10;;
28009;SDS011;15334;49.494;8.410;2023-08-31T20:08:25;8.73;;;4.57;;
28009;SDS011;15334;49.494;8.410;2023-08-31T20:11:13;10.45;;;3.72;;
28009;SDS011;15334;49.494;8.410;2023-08-31T20:14:18;14.00;;;4.45;;
28009;SDS011;15334;49.494;8.410;2023-08-31T20:17:06;11.30;;;4.50;;
28009;SDS011;15334;49.494;8.410;2023-08-31T20:20:16;8.65;;;3.92;;
28009;SDS011;15334;49.494;8.410;2023-08-31T20:22:51;11.13;;;4.25;;
28009;SDS011;15334;49.494;8.410;2023-08-31T20:25:50;10.88;;;4.78;;
28009;SDS011;15334;49.494;8.410;2023-08-31T20:28:36;10.02;;;4.38;;
28009;SDS011;15334;49.494;8.410;2023-08-31T20:31:22;10.52;;;4.72;;
28009;SDS011;15334;49.494;8.410;2023-08-31T20:33:51;9.13;;;4.30;;
28009;SDS011;15334;49.494;8.410;2023-08-31T20:36:19;11.23;;;4.95;;
28009;SDS011;15334;49.494;8.410;2023-08-31T20:38:47;6.70;;;4.03;;
28009;SDS011;15334;49.494;8.410;2023-08-31T20:41:16;7.60;;;4.22;;
28009;SDS011;15334;49.494;8.410;2023-08-31T20:43:44;10.52;;;3.88;;
28009;SDS011;15334;49.494;8.410;2023-08-31T20:46:12;9.68;;;3.85;;
28009;SDS011;15334;49.494;8.410;2023-08-31T20:48:40;10.88;;;4.38;;
28009;SDS011;15334;49.494;8.410;2023-08-31T20:51:09;10.00;;;3.92;;
28009;SDS011;15334;49.494;8.410;2023-08-31T20:53:38;11.80;;;4.28;;
28009;SDS011;15334;49.494;8.410;2023-08-31T20:56:06;7.82;;;4.18;;
28009;SDS011;15334;49.494;8.410;2023-08-31T20:58:35;9.85;;;3.95;;
28009;SDS011;15334;49.494;8.410;2023-08-31T21:01:04;6.82;;;3.05;;
28009;SDS011;15334;49.494;8.410;2023-08-31T21:03:33;8.60;;;3.95;;
28009;SDS011;15334;49.494;8.410;2023-08-31T21:06:03;7.50;;;3.50;;
28009;SDS011;15334;49.494;8.410;2023-08-31T21:08:34;7.18;;;3.92;;
28009;SDS011;15334;49.494;8.410;2023-08-31T21:11:02;8.95;;;3.83;;
28009;SDS011;15334;49.494;8.410;2023-08-31T21:13:30;6.90;;;3.70;;
28009;SDS011;15334;49.494;8.410;2023-08-31T21:16:02;8.05;;;4.07;;
28009;SDS011;15334;49.494;8.410;2023-08-31T21:18:32;6.90;;;3.53;;
28009;SDS011;15334;49.494;8.410;2023-08-31T21:21:02;9.88;;;4.35;;
28009;SDS011;15334;49.494;8.410;2023-08-31T21:23:31;9.50;;;4.25;;
28009;SDS011;15334;49.494;8.410;2023-08-31T21:26:01;11.18;;;3.97;;
28009;SDS011;15334;49.494;8.410;2023-08-31T21:28:29;8.57;;;3.38;;
28009;SDS011;15334;49.494;8.410;2023-08-31T21:30:57;14.10;;;4.38;;
28009;SDS011;15334;49.494;8.410;2023-08-31T21:33:29;14.43;;;4.30;;
28009;SDS011;15334;49.494;8.410;2023-08-31T21:35:58;9.55;;;4.15;;
28009;SDS011;15334;49.494;8.410;2023-08-31T21:38:27;10.82;;;3.85;;
28009;SDS011;15334;49.494;8.410;2023-08-31T21:40:56;13.10;;;4.50;;
28009;SDS011;15334;49.494;8.410;2023-08-31T21:43:30;8.05;;;3.90;;
28009;SDS011;15334;49.494;8.410;2023-08-31T21:45:59;8.23;;;3.72;;
28009;SDS011;15334;49.494;8.410;2023-08-31T21:48:29;8.98;;;3.65;;
28009;SDS011;15334;49.494;8.410;2023-08-31T21:50:57;9.93;;;3.67;;
28009;SDS011;15334;49.494;8.410;2023-08-31T21:53:25;12.00;;;4.35;;
28009;SDS011;15334;49.494;8.410;2023-08-31T21:55:53;8.02;;;4.35;;
28009;SDS011;15334;49.494;8.410;2023-08-31T21:58:22;13.48;;;5.00;;
28009;SDS011;15334;49.494;8.410;2023-08-31T22:00:51;13.93;;;5.03;;
28009;SDS011;15334;49.494;8.410;2023-08-31T22:03:18;14.18;;;5.43;;
28009;SDS011;15334;49.494;8.410;2023-08-31T22:05:47;9.13;;;3.90;;
28009;SDS011;15334;49.494;8.410;2023-08-31T22:08:15;15.95;;;4.60;;
28009;SDS011;15334;49.494;8.410;2023-08-31T22:10:43;9.60;;;4.40;;
28009;SDS011;15334;49.494;8.410;2023-08-31T22:13:11;15.18;;;5.13;;
28009;SDS011;15334;49.494;8.410;2023-08-31T22:15:41;9.90;;;5.47;;
28009;SDS011;15334;49.494;8.410;2023-08-31T22:18:12;12.98;;;4.57;;
28009;SDS011;15334;49.494;8.410;2023-08-31T22:20:41;11.98;;;5.72;;
28009;SDS011;15334;49.494;8.410;2023-08-31T22:23:09;10.02;;;4.72;;
28009;SDS011;15334;49.494;8.410;2023-08-31T22:25:37;13.52;;;5.18;;
28009;SDS011;15334;49.494;8.410;2023-08-31T22:28:06;15.05;;;4.72;;
28009;SDS011;15334;49.494;8.410;2023-08-31T22:30:34;14.02;;;5.22;;
28009;SDS011;15334;49.494;8.410;2023-08-31T22:33:05;12.40;;;4.70;;
28009;SDS011;15334;49.494;8.410;2023-08-31T22:35:34;10.30;;;4.85;;
28009;SDS011;15334;49.494;8.410;2023-08-31T22:38:01;13.98;;;5.47;;
28009;SDS011;15334;49.494;8.410;2023-08-31T22:40:29;10.25;;;5.32;;
28009;SDS011;15334;49.494;8.410;2023-08-31T22:42:57;12.30;;;6.03;;
28009;SDS011;15334;49.494;8.410;2023-08-31T22:45:25;11.63;;;5.88;;
28009;SDS011;15334;49.494;8.410;2023-08-31T22:47:54;11.73;;;5.53;;
28009;SDS011;15334;49.494;8.410;2023-08-31T22:50:23;10.32;;;4.97;;
28009;SDS011;15334;49.494;8.410;2023-08-31T22:52:51;12.50;;;5.10;;
28009;SDS011;15334;49.494;8.410;2023-08-31T22:55:19;11.05;;;5.22;;
28009;SDS011;15334;49.494;8.410;2023-08-31T22:57:47;11.32;;;6.15;;
28009;SDS011;15334;49.494;8.410;2023-08-31T23:00:15;12.57;;;6.25;;
28009;SDS011;15334;49.494;8.410;2023-08-31T23:02:43;9.48;;;5.40;;
28009;SDS011;15334;49.494;8.410;2023-08-31T23:05:11;14.05;;;5.22;;
28009;SDS011;15334;49.494;8.410;2023-08-31T23:07:40;9.75;;;6.22;;
28009;SDS011;15334;49.494;8.410;2023-08-31T23:10:09;11.63;;;5.55;;
28009;SDS011;15334;49.494;8.410;2023-08-31T23:12:52;15.60;;;6.80;;
28009;SDS011;15334;49.494;8.410;2023-08-31T23:15:20;14.02;;;7.10;;
28009;SDS011;15334;49.494;8.410;2023-08-31T23:17:48;10.70;;;5.70;;
28009;SDS011;15334;49.494;8.410;2023-08-31T23:20:16;15.48;;;6.47;;
28009;SDS011;15334;49.494;8.410;2023-08-31T23:22:45;19.55;;;6.15;;
28009;SDS011;15334;49.494;8.410;2023-08-31T23:25:13;14.20;;;6.25;;
28009;SDS011;15334;49.494;8.410;2023-08-31T23:27:41;12.13;;;6.55;;
28009;SDS011;15334;49.494;8.410;2023-08-31T23:30:09;16.33;;;6.72;;
28009;SDS011;15334;49.494;8.410;2023-08-31T23:32:38;14.55;;;7.57;;
28009;SDS011;15334;49.494;8.410;2023-08-31T23:35:07;15.80;;;6.20;;
28009;SDS011;15334;49.494;8.410;2023-08-31T23:37:36;15.48;;;5.80;;
28009;SDS011;15334;49.494;8.410;2023-08-31T23:40:06;16.33;;;7.32;;
28009;SDS011;15334;49.494;8.410;2023-08-31T23:42:37;13.95;;;6.63;;
28009;SDS011;15334;49.494;8.410;2023-08-31T23:45:09;20.17;;;7.70;;
28009;SDS011;15334;49.494;8.410;2023-08-31T23:47:37;13.38;;;7.85;;
28009;SDS011;15334;49.494;8.410;2023-08-31T23:50:05;15.93;;;7.68;;
28009;SDS011;15334;49.494;8.410;2023-08-31T23:52:33;14.70;;;6.80;;
28009;SDS011;15334;49.494;8.410;2023-08-31T23:55:01;15.02;;;6.78;;
28009;SDS011;15334;49.494;8.410;2023-08-31T23:57:30;12.05;;;6.35;;
28009;SDS011;15334;49.494;8.410;2023-08-31T23:59:58;12.95;;;6.32;;
